sensor_id;sensor_type;location;lat;lon;timestamp;temperature;humidity
62555;DHT22;48610;52.144;8.624;2023-04-29T00:01:18;12.30;99.90
62555;DHT22;48610;52.144;8.624;2023-04-29T00:04:19;12.40;99.90
62555;DHT22;48610;52.144;8.624;2023-04-29T00:07:19;12.40;99.90
62555;DHT22;48610;52.144;8.624;2023-04-29T00:10:20;12.40;99.90
62555;DHT22;48610;52.144;8.624;2023-04-29T00:13:20;12.50;99.90
62555;DHT22;48610;52.144;8.624;2023-04-29T00:16:21;12.40;99.90
62555;DHT22;48610;52.144;8.624;2023-04-29T00:19:22;12.40;99.90
62555;DHT22;48610;52.144;8.624;2023-04-29T00:22:23;12.30;99.90
62555;DHT22;48610;52.144;8.624;2023-04-29T00:25:24;12.20;99.90
62555;DHT22;48610;52.144;8.624;2023-04-29T00:28:24;12.20;99.90
62555;DHT22;48610;52.144;8.624;2023-04-29T00:31:25;12.10;99.90
62555;DHT22;48610;52.144;8.624;2023-04-29T00:34:26;12.20;99.90
62555;DHT22;48610;52.144;8.624;2023-04-29T00:37:26;12.20;99.90
62555;DHT22;48610;52.144;8.624;2023-04-29T00:40:29;12.20;99.90
62555;DHT22;48610;52.144;8.624;2023-04-29T00:43:30;12.10;99.90
62555;DHT22;48610;52.144;8.624;2023-04-29T00:46:30;12.10;99.90
62555;DHT22;48610;52.144;8.624;2023-04-29T00:49:31;12.20;99.90
62555;DHT22;48610;52.144;8.624;2023-04-29T00:52:33;12.20;99.90
62555;DHT22;48610;52.144;8.624;2023-04-29T00:55:34;12.10;99.90
62555;DHT22;48610;52.144;8.624;2023-04-29T00:58:36;12.10;99.90
62555;DHT22;48610;52.144;8.624;2023-04-29T01:01:38;12.00;99.90
62555;DHT22;48610;52.144;8.624;2023-04-29T01:04:39;12.10;99.90
62555;DHT22;48610;52.144;8.624;2023-04-29T01:11:31;12.20;99.90
62555;DHT22;48610;52.144;8.624;2023-04-29T01:14:35;12.30;99.90
62555;DHT22;48610;52.144;8.624;2023-04-29T01:17:59;12.30;99.90
62555;DHT22;48610;52.144;8.624;2023-04-29T01:21:00;12.30;99.90
62555;DHT22;48610;52.144;8.624;2023-04-29T01:24:01;12.20;99.90
62555;DHT22;48610;52.144;8.624;2023-04-29T01:43:04;11.80;99.90
62555;DHT22;48610;52.144;8.624;2023-04-29T01:46:09;12.00;99.90
62555;DHT22;48610;52.144;8.624;2023-04-29T01:49:11;11.80;99.90
62555;DHT22;48610;52.144;8.624;2023-04-29T01:52:12;11.70;99.90
62555;DHT22;48610;52.144;8.624;2023-04-29T01:55:13;11.60;99.90
62555;DHT22;48610;52.144;8.624;2023-04-29T01:58:13;11.70;99.90
62555;DHT22;48610;52.144;8.624;2023-04-29T02:01:14;11.70;99.90
62555;DHT22;48610;52.144;8.624;2023-04-29T02:04:14;11.80;99.90
62555;DHT22;48610;52.144;8.624;2023-04-29T02:07:16;11.90;99.90
62555;DHT22;48610;52.144;8.624;2023-04-29T02:10:16;11.90;99.90
62555;DHT22;48610;52.144;8.624;2023-04-29T02:13:17;11.80;99.90
62555;DHT22;48610;52.144;8.624;2023-04-29T02:16:17;11.80;99.90
62555;DHT22;48610;52.144;8.624;2023-04-29T02:19:18;11.90;99.90
62555;DHT22;48610;52.144;8.624;2023-04-29T02:22:19;11.80;99.90
62555;DHT22;48610;52.144;8.624;2023-04-29T02:25:20;11.80;99.90
62555;DHT22;48610;52.144;8.624;2023-04-29T02:28:20;11.80;99.90
62555;DHT22;48610;52.144;8.624;2023-04-29T02:31:22;11.80;99.90
62555;DHT22;48610;52.144;8.624;2023-04-29T02:34:23;11.60;99.90
62555;DHT22;48610;52.144;8.624;2023-04-29T02:37:24;11.50;99.90
62555;DHT22;48610;52.144;8.624;2023-04-29T02:40:24;11.50;99.90
62555;DHT22;48610;52.144;8.624;2023-04-29T02:43:26;11.50;99.90
62555;DHT22;48610;52.144;8.624;2023-04-29T02:46:30;11.50;99.90
62555;DHT22;48610;52.144;8.624;2023-04-29T02:49:33;11.30;99.90
62555;DHT22;48610;52.144;8.624;2023-04-29T02:52:33;11.30;99.90
62555;DHT22;48610;52.144;8.624;2023-04-29T02:55:34;11.30;99.90
62555;DHT22;48610;52.144;8.624;2023-04-29T02:58:34;11.30;99.90
62555;DHT22;48610;52.144;8.624;2023-04-29T03:01:35;11.40;99.90
62555;DHT22;48610;52.144;8.624;2023-04-29T03:04:37;11.40;99.90
62555;DHT22;48610;52.144;8.624;2023-04-29T03:07:39;11.40;99.90
62555;DHT22;48610;52.144;8.624;2023-04-29T03:10:40;11.30;99.90
62555;DHT22;48610;52.144;8.624;2023-04-29T03:13:40;11.30;99.90
62555;DHT22;48610;52.144;8.624;2023-04-29T03:16:41;11.30;99.90
62555;DHT22;48610;52.144;8.624;2023-04-29T03:19:42;11.20;99.90
62555;DHT22;48610;52.144;8.624;2023-04-29T03:22:42;11.30;99.90
62555;DHT22;48610;52.144;8.624;2023-04-29T03:25:43;11.20;99.90
62555;DHT22;48610;52.144;8.624;2023-04-29T03:28:44;11.30;99.90
62555;DHT22;48610;52.144;8.624;2023-04-29T03:31:44;11.30;99.90
62555;DHT22;48610;52.144;8.624;2023-04-29T03:34:45;11.30;99.90
62555;DHT22;48610;52.144;8.624;2023-04-29T03:37:46;11.30;99.90
62555;DHT22;48610;52.144;8.624;2023-04-29T03:40:46;11.20;99.90
62555;DHT22;48610;52.144;8.624;2023-04-29T03:43:47;11.10;99.90
62555;DHT22;48610;52.144;8.624;2023-04-29T03:46:48;11.10;99.90
62555;DHT22;48610;52.144;8.624;2023-04-29T03:49:48;11.10;99.90
62555;DHT22;48610;52.144;8.624;2023-04-29T03:52:49;11.20;99.90
62555;DHT22;48610;52.144;8.624;2023-04-29T03:55:49;11.10;99.90
62555;DHT22;48610;52.144;8.624;2023-04-29T03:58:51;11.10;99.90
62555;DHT22;48610;52.144;8.624;2023-04-29T04:01:52;11.10;99.90
62555;DHT22;48610;52.144;8.624;2023-04-29T04:04:53;11.10;99.90
62555;DHT22;48610;52.144;8.624;2023-04-29T04:07:54;10.90;99.90
62555;DHT22;48610;52.144;8.624;2023-04-29T04:10:55;11.00;99.90
62555;DHT22;48610;52.144;8.624;2023-04-29T04:14:02;11.00;99.90
62555;DHT22;48610;52.144;8.624;2023-04-29T04:17:03;11.00;99.90
62555;DHT22;48610;52.144;8.624;2023-04-29T04:20:04;10.90;99.90
62555;DHT22;48610;52.144;8.624;2023-04-29T04:23:05;10.90;99.90
62555;DHT22;48610;52.144;8.624;2023-04-29T04:26:06;10.80;99.90
62555;DHT22;48610;52.144;8.624;2023-04-29T04:29:07;10.80;99.90
62555;DHT22;48610;52.144;8.624;2023-04-29T04:32:07;10.80;99.90
62555;DHT22;48610;52.144;8.624;2023-04-29T04:35:08;10.90;99.90
62555;DHT22;48610;52.144;8.624;2023-04-29T04:38:09;10.90;99.90
62555;DHT22;48610;52.144;8.624;2023-04-29T04:41:10;10.90;99.90
62555;DHT22;48610;52.144;8.624;2023-04-29T04:44:12;10.80;99.90
62555;DHT22;48610;52.144;8.624;2023-04-29T04:47:13;10.80;99.90
62555;DHT22;48610;52.144;8.624;2023-04-29T04:50:14;10.80;99.90
62555;DHT22;48610;52.144;8.624;2023-04-29T04:53:14;11.00;99.90
62555;DHT22;48610;52.144;8.624;2023-04-29T04:56:15;10.90;99.90
62555;DHT22;48610;52.144;8.624;2023-04-29T04:59:15;10.80;99.90
62555;DHT22;48610;52.144;8.624;2023-04-29T05:02:16;10.90;99.90
62555;DHT22;48610;52.144;8.624;2023-04-29T05:05:17;10.90;99.90
62555;DHT22;48610;52.144;8.624;2023-04-29T05:08:17;10.80;99.90
62555;DHT22;48610;52.144;8.624;2023-04-29T05:11:19;10.90;99.90
62555;DHT22;48610;52.144;8.624;2023-04-29T05:14:20;10.80;99.90
62555;DHT22;48610;52.144;8.624;2023-04-29T05:17:20;10.80;99.90
62555;DHT22;48610;52.144;8.624;2023-04-29T05:20:21;11.00;99.90
62555;DHT22;48610;52.144;8.624;2023-04-29T05:23:21;10.90;99.90
62555;DHT22;48610;52.144;8.624;2023-04-29T05:26:23;11.00;99.90
62555;DHT22;48610;52.144;8.624;2023-04-29T05:29:24;10.90;99.90
62555;DHT22;48610;52.144;8.624;2023-04-29T05:32:26;10.90;99.90
62555;DHT22;48610;52.144;8.624;2023-04-29T05:35:27;10.90;99.90
62555;DHT22;48610;52.144;8.624;2023-04-29T05:38:27;10.90;99.90
62555;DHT22;48610;52.144;8.624;2023-04-29T05:41:28;10.80;99.90
62555;DHT22;48610;52.144;8.624;2023-04-29T05:44:29;10.70;99.90
62555;DHT22;48610;52.144;8.624;2023-04-29T05:47:29;10.70;99.90
62555;DHT22;48610;52.144;8.624;2023-04-29T05:50:30;10.80;99.90
62555;DHT22;48610;52.144;8.624;2023-04-29T05:53:31;10.80;99.90
62555;DHT22;48610;52.144;8.624;2023-04-29T05:56:32;10.80;99.90
62555;DHT22;48610;52.144;8.624;2023-04-29T05:59:33;11.00;99.90
62555;DHT22;48610;52.144;8.624;2023-04-29T06:02:33;11.00;99.90
62555;DHT22;48610;52.144;8.624;2023-04-29T06:05:35;10.90;99.90
62555;DHT22;48610;52.144;8.624;2023-04-29T06:08:36;11.00;99.90
62555;DHT22;48610;52.144;8.624;2023-04-29T06:11:36;11.10;99.90
62555;DHT22;48610;52.144;8.624;2023-04-29T06:18:35;11.00;99.90
62555;DHT22;48610;52.144;8.624;2023-04-29T06:21:35;11.00;99.90
62555;DHT22;48610;52.144;8.624;2023-04-29T06:24:36;11.10;99.90
62555;DHT22;48610;52.144;8.624;2023-04-29T06:27:36;11.10;99.90
62555;DHT22;48610;52.144;8.624;2023-04-29T06:30:37;11.10;99.90
62555;DHT22;48610;52.144;8.624;2023-04-29T06:33:38;11.20;99.90
62555;DHT22;48610;52.144;8.624;2023-04-29T06:36:38;11.20;99.90
62555;DHT22;48610;52.144;8.624;2023-04-29T06:39:39;11.20;99.90
62555;DHT22;48610;52.144;8.624;2023-04-29T06:42:40;11.20;99.90
62555;DHT22;48610;52.144;8.624;2023-04-29T06:45:40;11.20;99.90
62555;DHT22;48610;52.144;8.624;2023-04-29T06:48:42;11.20;99.90
62555;DHT22;48610;52.144;8.624;2023-04-29T06:51:42;11.30;99.90
62555;DHT22;48610;52.144;8.624;2023-04-29T06:54:43;11.40;99.90
62555;DHT22;48610;52.144;8.624;2023-04-29T06:57:44;11.50;99.90
62555;DHT22;48610;52.144;8.624;2023-04-29T07:00:48;11.50;99.90
62555;DHT22;48610;52.144;8.624;2023-04-29T07:03:49;11.30;99.90
62555;DHT22;48610;52.144;8.624;2023-04-29T07:06:50;11.30;99.90
62555;DHT22;48610;52.144;8.624;2023-04-29T07:09:53;11.30;99.90
62555;DHT22;48610;52.144;8.624;2023-04-29T07:12:53;11.20;99.90
62555;DHT22;48610;52.144;8.624;2023-04-29T07:15:54;11.20;99.90
62555;DHT22;48610;52.144;8.624;2023-04-29T07:18:55;11.20;99.90
62555;DHT22;48610;52.144;8.624;2023-04-29T07:21:55;11.30;99.90
62555;DHT22;48610;52.144;8.624;2023-04-29T07:24:56;11.30;99.90
62555;DHT22;48610;52.144;8.624;2023-04-29T07:27:56;11.20;99.90
62555;DHT22;48610;52.144;8.624;2023-04-29T07:30:57;11.20;99.90
62555;DHT22;48610;52.144;8.624;2023-04-29T07:33:57;11.30;99.90
62555;DHT22;48610;52.144;8.624;2023-04-29T07:36:58;11.40;99.90
62555;DHT22;48610;52.144;8.624;2023-04-29T07:39:58;11.60;99.90
62555;DHT22;48610;52.144;8.624;2023-04-29T07:43:00;11.40;99.90
62555;DHT22;48610;52.144;8.624;2023-04-29T07:46:04;11.60;99.90
62555;DHT22;48610;52.144;8.624;2023-04-29T07:49:05;11.60;99.90
62555;DHT22;48610;52.144;8.624;2023-04-29T07:52:06;11.70;99.90
62555;DHT22;48610;52.144;8.624;2023-04-29T07:55:09;11.70;99.90
62555;DHT22;48610;52.144;8.624;2023-04-29T07:58:10;11.60;99.90
62555;DHT22;48610;52.144;8.624;2023-04-29T08:01:10;11.70;99.90
62555;DHT22;48610;52.144;8.624;2023-04-29T08:04:11;11.80;99.90
62555;DHT22;48610;52.144;8.624;2023-04-29T08:07:12;12.10;99.90
62555;DHT22;48610;52.144;8.624;2023-04-29T08:10:14;12.10;99.90
62555;DHT22;48610;52.144;8.624;2023-04-29T08:13:15;12.10;99.90
62555;DHT22;48610;52.144;8.624;2023-04-29T08:16:15;12.10;99.90
62555;DHT22;48610;52.144;8.624;2023-04-29T08:19:16;12.10;99.90
62555;DHT22;48610;52.144;8.624;2023-04-29T08:22:16;12.10;99.90
62555;DHT22;48610;52.144;8.624;2023-04-29T08:25:17;12.10;99.90
62555;DHT22;48610;52.144;8.624;2023-04-29T08:28:17;12.10;99.90
62555;DHT22;48610;52.144;8.624;2023-04-29T08:31:20;12.40;99.90
62555;DHT22;48610;52.144;8.624;2023-04-29T08:34:20;12.30;99.90
62555;DHT22;48610;52.144;8.624;2023-04-29T08:37:21;12.40;99.90
62555;DHT22;48610;52.144;8.624;2023-04-29T08:40:21;12.60;99.90
62555;DHT22;48610;52.144;8.624;2023-04-29T08:43:22;12.80;99.90
62555;DHT22;48610;52.144;8.624;2023-04-29T08:46:25;12.80;99.90
62555;DHT22;48610;52.144;8.624;2023-04-29T08:49:27;13.00;99.90
62555;DHT22;48610;52.144;8.624;2023-04-29T08:52:29;13.00;99.90
62555;DHT22;48610;52.144;8.624;2023-04-29T08:55:30;12.90;99.90
62555;DHT22;48610;52.144;8.624;2023-04-29T08:58:33;13.10;99.90
62555;DHT22;48610;52.144;8.624;2023-04-29T09:01:35;13.10;99.90
62555;DHT22;48610;52.144;8.624;2023-04-29T09:04:47;13.20;99.90
62555;DHT22;48610;52.144;8.624;2023-04-29T09:07:51;13.20;99.90
62555;DHT22;48610;52.144;8.624;2023-04-29T09:10:53;13.30;99.90
62555;DHT22;48610;52.144;8.624;2023-04-29T09:14:01;13.10;99.90
62555;DHT22;48610;52.144;8.624;2023-04-29T09:17:02;13.30;99.90
62555;DHT22;48610;52.144;8.624;2023-04-29T09:20:24;13.30;99.90
62555;DHT22;48610;52.144;8.624;2023-04-29T09:23:36;13.60;99.90
62555;DHT22;48610;52.144;8.624;2023-04-29T09:26:42;13.80;99.90
62555;DHT22;48610;52.144;8.624;2023-04-29T09:29:59;13.80;99.90
62555;DHT22;48610;52.144;8.624;2023-04-29T09:33:06;13.90;99.90
62555;DHT22;48610;52.144;8.624;2023-04-29T09:36:07;13.90;99.90
62555;DHT22;48610;52.144;8.624;2023-04-29T09:39:09;14.00;99.90
62555;DHT22;48610;52.144;8.624;2023-04-29T09:42:13;14.30;99.90
62555;DHT22;48610;52.144;8.624;2023-04-29T09:45:34;14.10;99.90
62555;DHT22;48610;52.144;8.624;2023-04-29T09:48:35;14.20;99.90
62555;DHT22;48610;52.144;8.624;2023-04-29T09:51:51;14.20;99.90
62555;DHT22;48610;52.144;8.624;2023-04-29T09:54:52;14.30;99.90
62555;DHT22;48610;52.144;8.624;2023-04-29T09:58:04;14.20;99.90
62555;DHT22;48610;52.144;8.624;2023-04-29T10:01:06;14.10;99.90
62555;DHT22;48610;52.144;8.624;2023-04-29T10:04:09;14.10;99.90
62555;DHT22;48610;52.144;8.624;2023-04-29T10:07:14;14.00;99.90
62555;DHT22;48610;52.144;8.624;2023-04-29T10:10:16;14.00;99.90
62555;DHT22;48610;52.144;8.624;2023-04-29T10:13:17;13.70;99.90
62555;DHT22;48610;52.144;8.624;2023-04-29T10:16:28;13.70;99.90
62555;DHT22;48610;52.144;8.624;2023-04-29T10:19:46;14.00;99.90
62555;DHT22;48610;52.144;8.624;2023-04-29T10:22:52;14.10;99.90
62555;DHT22;48610;52.144;8.624;2023-04-29T10:25:54;14.40;99.90
62555;DHT22;48610;52.144;8.624;2023-04-29T10:28:58;14.40;99.90
62555;DHT22;48610;52.144;8.624;2023-04-29T10:32:00;14.50;99.90
62555;DHT22;48610;52.144;8.624;2023-04-29T10:35:01;14.30;99.90
62555;DHT22;48610;52.144;8.624;2023-04-29T10:38:14;14.20;99.90
62555;DHT22;48610;52.144;8.624;2023-04-29T10:41:25;14.00;99.90
62555;DHT22;48610;52.144;8.624;2023-04-29T10:44:27;13.70;99.90
62555;DHT22;48610;52.144;8.624;2023-04-29T10:47:28;13.90;99.90
62555;DHT22;48610;52.144;8.624;2023-04-29T10:50:29;14.10;99.90
62555;DHT22;48610;52.144;8.624;2023-04-29T10:53:30;14.50;99.90
62555;DHT22;48610;52.144;8.624;2023-04-29T10:56:46;14.70;99.90
62555;DHT22;48610;52.144;8.624;2023-04-29T10:59:47;14.90;99.90
62555;DHT22;48610;52.144;8.624;2023-04-29T11:02:47;14.70;99.90
62555;DHT22;48610;52.144;8.624;2023-04-29T11:06:07;14.60;99.90
62555;DHT22;48610;52.144;8.624;2023-04-29T11:09:24;14.50;99.90
62555;DHT22;48610;52.144;8.624;2023-04-29T11:12:25;14.60;99.90
62555;DHT22;48610;52.144;8.624;2023-04-29T11:15:26;14.60;99.90
62555;DHT22;48610;52.144;8.624;2023-04-29T11:18:32;14.50;99.90
62555;DHT22;48610;52.144;8.624;2023-04-29T11:21:37;14.30;99.90
62555;DHT22;48610;52.144;8.624;2023-04-29T11:27:58;14.10;99.90
62555;DHT22;48610;52.144;8.624;2023-04-29T11:31:01;14.10;99.90
62555;DHT22;48610;52.144;8.624;2023-04-29T11:34:03;14.20;99.90
62555;DHT22;48610;52.144;8.624;2023-04-29T11:37:04;14.30;99.90
62555;DHT22;48610;52.144;8.624;2023-04-29T11:40:06;14.40;99.90
62555;DHT22;48610;52.144;8.624;2023-04-29T11:43:07;14.50;99.90
62555;DHT22;48610;52.144;8.624;2023-04-29T11:46:11;14.90;99.90
62555;DHT22;48610;52.144;8.624;2023-04-29T11:49:13;15.10;99.90
62555;DHT22;48610;52.144;8.624;2023-04-29T11:52:14;15.60;99.90
62555;DHT22;48610;52.144;8.624;2023-04-29T11:55:16;15.40;99.90
62555;DHT22;48610;52.144;8.624;2023-04-29T11:58:19;15.30;99.90
62555;DHT22;48610;52.144;8.624;2023-04-29T12:01:20;15.20;99.90
62555;DHT22;48610;52.144;8.624;2023-04-29T12:04:21;15.00;99.90
62555;DHT22;48610;52.144;8.624;2023-04-29T12:07:22;14.90;99.90
62555;DHT22;48610;52.144;8.624;2023-04-29T12:10:24;14.80;99.90
62555;DHT22;48610;52.144;8.624;2023-04-29T12:13:29;14.70;99.90
62555;DHT22;48610;52.144;8.624;2023-04-29T12:16:30;14.70;99.90
62555;DHT22;48610;52.144;8.624;2023-04-29T12:19:31;14.60;99.90
62555;DHT22;48610;52.144;8.624;2023-04-29T12:22:32;14.60;99.90
62555;DHT22;48610;52.144;8.624;2023-04-29T12:25:33;14.60;99.90
62555;DHT22;48610;52.144;8.624;2023-04-29T12:28:34;14.40;99.90
62555;DHT22;48610;52.144;8.624;2023-04-29T12:31:35;14.30;99.90
62555;DHT22;48610;52.144;8.624;2023-04-29T12:34:35;14.30;99.90
62555;DHT22;48610;52.144;8.624;2023-04-29T12:37:36;14.30;99.90
62555;DHT22;48610;52.144;8.624;2023-04-29T12:40:36;14.40;99.90
62555;DHT22;48610;52.144;8.624;2023-04-29T12:43:37;14.50;99.90
62555;DHT22;48610;52.144;8.624;2023-04-29T12:46:41;14.70;99.90
62555;DHT22;48610;52.144;8.624;2023-04-29T12:49:43;14.70;99.90
62555;DHT22;48610;52.144;8.624;2023-04-29T12:52:44;14.70;99.90
62555;DHT22;48610;52.144;8.624;2023-04-29T12:55:45;14.80;99.90
62555;DHT22;48610;52.144;8.624;2023-04-29T12:58:45;14.90;99.90
62555;DHT22;48610;52.144;8.624;2023-04-29T13:01:46;14.90;99.90
62555;DHT22;48610;52.144;8.624;2023-04-29T13:04:47;14.80;99.90
62555;DHT22;48610;52.144;8.624;2023-04-29T13:07:48;14.70;99.90
62555;DHT22;48610;52.144;8.624;2023-04-29T13:10:49;14.70;99.90
62555;DHT22;48610;52.144;8.624;2023-04-29T13:13:50;14.70;99.90
62555;DHT22;48610;52.144;8.624;2023-04-29T13:16:50;14.70;99.90
62555;DHT22;48610;52.144;8.624;2023-04-29T13:19:51;14.70;99.90
62555;DHT22;48610;52.144;8.624;2023-04-29T13:22:52;14.80;99.90
62555;DHT22;48610;52.144;8.624;2023-04-29T13:25:53;14.90;99.90
62555;DHT22;48610;52.144;8.624;2023-04-29T13:28:53;15.00;99.90
62555;DHT22;48610;52.144;8.624;2023-04-29T13:31:54;15.00;99.90
62555;DHT22;48610;52.144;8.624;2023-04-29T13:34:56;15.00;99.90
62555;DHT22;48610;52.144;8.624;2023-04-29T13:37:57;14.90;99.90
62555;DHT22;48610;52.144;8.624;2023-04-29T13:40:57;14.90;99.90
62555;DHT22;48610;52.144;8.624;2023-04-29T13:43:58;15.00;99.90
62555;DHT22;48610;52.144;8.624;2023-04-29T13:46:59;15.10;99.90
62555;DHT22;48610;52.144;8.624;2023-04-29T13:50:00;15.00;99.90
62555;DHT22;48610;52.144;8.624;2023-04-29T13:53:00;15.00;99.90
62555;DHT22;48610;52.144;8.624;2023-04-29T13:56:02;15.10;99.90
62555;DHT22;48610;52.144;8.624;2023-04-29T13:59:03;15.30;99.90
62555;DHT22;48610;52.144;8.624;2023-04-29T14:02:03;15.20;99.90
62555;DHT22;48610;52.144;8.624;2023-04-29T14:05:04;15.30;99.90
62555;DHT22;48610;52.144;8.624;2023-04-29T14:08:05;15.30;99.90
62555;DHT22;48610;52.144;8.624;2023-04-29T14:11:06;15.40;99.90
62555;DHT22;48610;52.144;8.624;2023-04-29T14:14:06;15.60;99.90
62555;DHT22;48610;52.144;8.624;2023-04-29T14:17:07;15.70;99.90
62555;DHT22;48610;52.144;8.624;2023-04-29T14:20:08;15.90;99.90
62555;DHT22;48610;52.144;8.624;2023-04-29T14:23:09;15.80;99.90
62555;DHT22;48610;52.144;8.624;2023-04-29T14:26:10;15.90;99.90
62555;DHT22;48610;52.144;8.624;2023-04-29T14:29:10;16.20;99.90
62555;DHT22;48610;52.144;8.624;2023-04-29T14:32:11;16.40;99.90
62555;DHT22;48610;52.144;8.624;2023-04-29T14:35:12;16.50;99.90
62555;DHT22;48610;52.144;8.624;2023-04-29T14:38:13;16.50;99.90
62555;DHT22;48610;52.144;8.624;2023-04-29T14:41:13;16.50;99.90
62555;DHT22;48610;52.144;8.624;2023-04-29T14:44:14;16.50;99.90
62555;DHT22;48610;52.144;8.624;2023-04-29T14:47:15;16.20;99.90
62555;DHT22;48610;52.144;8.624;2023-04-29T14:50:15;16.00;99.90
62555;DHT22;48610;52.144;8.624;2023-04-29T14:53:17;15.90;99.90
62555;DHT22;48610;52.144;8.624;2023-04-29T14:56:18;16.00;99.90
62555;DHT22;48610;52.144;8.624;2023-04-29T14:59:18;15.90;99.90
62555;DHT22;48610;52.144;8.624;2023-04-29T15:02:19;15.90;99.90
62555;DHT22;48610;52.144;8.624;2023-04-29T15:05:19;16.00;99.90
62555;DHT22;48610;52.144;8.624;2023-04-29T15:08:20;16.10;99.90
62555;DHT22;48610;52.144;8.624;2023-04-29T15:11:21;16.40;99.00
62555;DHT22;48610;52.144;8.624;2023-04-29T15:14:22;16.50;98.00
62555;DHT22;48610;52.144;8.624;2023-04-29T15:17:22;16.70;98.50
62555;DHT22;48610;52.144;8.624;2023-04-29T15:20:23;16.60;97.40
62555;DHT22;48610;52.144;8.624;2023-04-29T15:23:23;16.60;96.60
62555;DHT22;48610;52.144;8.624;2023-04-29T15:26:25;16.50;97.80
62555;DHT22;48610;52.144;8.624;2023-04-29T15:29:26;16.20;98.30
62555;DHT22;48610;52.144;8.624;2023-04-29T15:32:27;16.00;98.90
62555;DHT22;48610;52.144;8.624;2023-04-29T15:35:33;15.90;99.20
62555;DHT22;48610;52.144;8.624;2023-04-29T15:38:33;15.90;98.40
62555;DHT22;48610;52.144;8.624;2023-04-29T15:41:34;15.80;99.40
62555;DHT22;48610;52.144;8.624;2023-04-29T15:44:35;15.80;99.60
62555;DHT22;48610;52.144;8.624;2023-04-29T15:47:36;15.70;99.60
62555;DHT22;48610;52.144;8.624;2023-04-29T15:50:36;15.60;99.40
62555;DHT22;48610;52.144;8.624;2023-04-29T15:53:37;15.70;99.90
62555;DHT22;48610;52.144;8.624;2023-04-29T15:56:38;15.60;99.50
62555;DHT22;48610;52.144;8.624;2023-04-29T15:59:38;15.70;99.50
62555;DHT22;48610;52.144;8.624;2023-04-29T16:02:39;15.70;99.90
62555;DHT22;48610;52.144;8.624;2023-04-29T16:05:39;15.70;99.80
62555;DHT22;48610;52.144;8.624;2023-04-29T16:08:40;15.70;99.90
62555;DHT22;48610;52.144;8.624;2023-04-29T16:11:41;15.70;99.90
62555;DHT22;48610;52.144;8.624;2023-04-29T16:14:41;15.70;99.90
62555;DHT22;48610;52.144;8.624;2023-04-29T16:17:42;15.50;99.90
62555;DHT22;48610;52.144;8.624;2023-04-29T16:20:42;15.40;99.90
62555;DHT22;48610;52.144;8.624;2023-04-29T16:23:44;15.30;99.90
62555;DHT22;48610;52.144;8.624;2023-04-29T16:26:45;15.30;99.90
62555;DHT22;48610;52.144;8.624;2023-04-29T16:29:47;15.10;99.90
62555;DHT22;48610;52.144;8.624;2023-04-29T16:32:47;15.10;99.90
62555;DHT22;48610;52.144;8.624;2023-04-29T16:35:48;15.10;99.90
62555;DHT22;48610;52.144;8.624;2023-04-29T16:38:49;15.00;99.90
62555;DHT22;48610;52.144;8.624;2023-04-29T16:41:50;15.00;99.90
62555;DHT22;48610;52.144;8.624;2023-04-29T16:44:51;14.90;99.90
62555;DHT22;48610;52.144;8.624;2023-04-29T16:47:52;14.90;99.90
62555;DHT22;48610;52.144;8.624;2023-04-29T16:50:53;15.00;99.90
62555;DHT22;48610;52.144;8.624;2023-04-29T16:53:54;14.90;99.90
62555;DHT22;48610;52.144;8.624;2023-04-29T16:56:55;14.90;99.90
62555;DHT22;48610;52.144;8.624;2023-04-29T16:59:55;14.90;99.90
62555;DHT22;48610;52.144;8.624;2023-04-29T17:02:56;14.90;99.90
62555;DHT22;48610;52.144;8.624;2023-04-29T17:05:57;14.90;99.90
62555;DHT22;48610;52.144;8.624;2023-04-29T17:08:58;14.90;99.90
62555;DHT22;48610;52.144;8.624;2023-04-29T17:11:59;14.90;99.90
62555;DHT22;48610;52.144;8.624;2023-04-29T17:15:03;14.90;99.90
62555;DHT22;48610;52.144;8.624;2023-04-29T17:18:05;14.80;99.90
62555;DHT22;48610;52.144;8.624;2023-04-29T17:21:05;14.90;99.90
62555;DHT22;48610;52.144;8.624;2023-04-29T17:24:06;14.90;99.90
62555;DHT22;48610;52.144;8.624;2023-04-29T17:27:07;15.00;99.90
62555;DHT22;48610;52.144;8.624;2023-04-29T17:30:08;15.00;99.90
62555;DHT22;48610;52.144;8.624;2023-04-29T17:33:08;15.10;99.90
62555;DHT22;48610;52.144;8.624;2023-04-29T17:36:09;15.10;99.90
62555;DHT22;48610;52.144;8.624;2023-04-29T17:39:10;15.20;99.90
62555;DHT22;48610;52.144;8.624;2023-04-29T17:42:12;15.20;99.90
62555;DHT22;48610;52.144;8.624;2023-04-29T17:45:13;15.10;99.90
62555;DHT22;48610;52.144;8.624;2023-04-29T17:48:13;14.90;99.90
62555;DHT22;48610;52.144;8.624;2023-04-29T17:51:17;14.80;99.90
62555;DHT22;48610;52.144;8.624;2023-04-29T17:54:18;14.80;99.90
62555;DHT22;48610;52.144;8.624;2023-04-29T17:57:18;14.70;99.90
62555;DHT22;48610;52.144;8.624;2023-04-29T18:00:19;14.60;99.90
62555;DHT22;48610;52.144;8.624;2023-04-29T18:03:20;14.70;99.90
62555;DHT22;48610;52.144;8.624;2023-04-29T18:06:22;14.90;99.90
62555;DHT22;48610;52.144;8.624;2023-04-29T18:09:23;15.00;99.90
62555;DHT22;48610;52.144;8.624;2023-04-29T18:12:25;15.10;99.90
62555;DHT22;48610;52.144;8.624;2023-04-29T18:15:26;14.90;99.90
62555;DHT22;48610;52.144;8.624;2023-04-29T18:18:26;14.90;99.90
62555;DHT22;48610;52.144;8.624;2023-04-29T18:21:27;14.60;99.90
62555;DHT22;48610;52.144;8.624;2023-04-29T18:24:28;14.50;99.90
62555;DHT22;48610;52.144;8.624;2023-04-29T18:27:28;14.40;99.90
62555;DHT22;48610;52.144;8.624;2023-04-29T18:30:29;14.30;99.90
62555;DHT22;48610;52.144;8.624;2023-04-29T18:33:29;14.30;99.90
62555;DHT22;48610;52.144;8.624;2023-04-29T18:36:30;14.20;99.90
62555;DHT22;48610;52.144;8.624;2023-04-29T18:39:32;14.00;99.90
62555;DHT22;48610;52.144;8.624;2023-04-29T18:42:32;14.00;99.90
62555;DHT22;48610;52.144;8.624;2023-04-29T18:45:33;13.90;99.90
62555;DHT22;48610;52.144;8.624;2023-04-29T18:48:33;13.90;99.90
62555;DHT22;48610;52.144;8.624;2023-04-29T18:51:35;13.70;99.90
62555;DHT22;48610;52.144;8.624;2023-04-29T18:54:36;13.60;99.90
62555;DHT22;48610;52.144;8.624;2023-04-29T18:57:36;13.50;99.90
62555;DHT22;48610;52.144;8.624;2023-04-29T19:00:37;13.60;99.90
62555;DHT22;48610;52.144;8.624;2023-04-29T19:03:38;13.80;99.90
62555;DHT22;48610;52.144;8.624;2023-04-29T19:06:39;13.80;99.90
62555;DHT22;48610;52.144;8.624;2023-04-29T19:09:40;13.80;99.90
62555;DHT22;48610;52.144;8.624;2023-04-29T19:12:41;13.80;99.90
62555;DHT22;48610;52.144;8.624;2023-04-29T19:15:42;13.60;99.90
62555;DHT22;48610;52.144;8.624;2023-04-29T19:18:44;13.50;99.90
62555;DHT22;48610;52.144;8.624;2023-04-29T19:21:45;13.30;99.90
62555;DHT22;48610;52.144;8.624;2023-04-29T19:24:46;13.20;99.90
62555;DHT22;48610;52.144;8.624;2023-04-29T19:27:47;13.40;99.90
62555;DHT22;48610;52.144;8.624;2023-04-29T19:30:48;13.30;99.90
62555;DHT22;48610;52.144;8.624;2023-04-29T19:33:49;13.40;99.90